Time;durP1;ratioP1;P1;durP2;ratioP2;P2;SDS_P1;SDS_P2;PMS_P1;PMS_P2;Temp;Humidity;BMP_temperature;BMP_pressure;BME280_temperature;BME280_humidity;BME280_pressure;Samples;Min_cycle;Max_cycle;Signal;HPM_P1;HPM_P2
2024/03/05 00:01:58;;;;;;;21.00;11.35;;;;;;;9.55;56.40;101191.63;4929371;28;113441;-69
2024/03/05 00:04:26;;;;;;;21.75;11.57;;;;;;;9.52;56.75;101189.94;4930462;28;124089;-69
2024/03/05 00:06:56;;;;;;;22.58;10.48;;;;;;;9.48;56.48;101190.97;4928813;28;124086;-69
2024/03/05 00:09:23;;;;;;;26.55;11.82;;;;;;;9.47;56.58;101194.53;4931830;28;114658;-69
2024/03/05 00:11:51;;;;;;;21.60;12.05;;;;;;;9.43;56.57;101195.56;4931859;28;114074;-69
2024/03/05 00:14:19;;;;;;;26.25;11.77;;;;;;;9.41;56.69;101205.31;4929217;28;123876;-69
2024/03/05 00:16:47;;;;;;;20.38;10.95;;;;;;;9.36;56.65;101196.66;4927453;28;124460;-69
2024/03/05 00:19:14;;;;;;;18.30;10.13;;;;;;;9.33;56.46;101202.09;4924140;28;114338;-69
2024/03/05 00:21:42;;;;;;;17.42;10.27;;;;;;;9.28;56.73;101199.56;4922588;28;114335;-69
2024/03/05 00:24:09;;;;;;;21.92;12.13;;;;;;;9.25;56.72;101193.53;4928449;28;124346;-69
2024/03/05 00:26:38;;;;;;;26.17;12.45;;;;;;;9.23;56.88;101190.09;4929210;28;124751;-69
2024/03/05 00:29:06;;;;;;;21.25;11.30;;;;;;;9.18;56.66;101192.03;4929817;28;114104;-69
2024/03/05 00:31:34;;;;;;;20.73;11.95;;;;;;;9.15;56.74;101188.59;4923507;28;114323;-69
2024/03/05 00:34:03;;;;;;;20.92;10.38;;;;;;;9.12;56.78;101193.97;4945810;28;123043;-69
2024/03/05 00:36:30;;;;;;;19.83;10.65;;;;;;;9.09;56.77;101194.06;4933637;28;123785;-69
2024/03/05 00:38:58;;;;;;;18.23;10.70;;;;;;;9.05;56.66;101192.44;4916389;28;115448;-69
2024/03/05 00:41:25;;;;;;;22.60;11.50;;;;;;;9.02;56.95;101189.03;4911942;28;114840;-69
2024/03/05 00:43:53;;;;;;;25.17;12.10;;;;;;;8.99;56.44;101192.63;4911825;28;123271;-69
2024/03/05 00:46:20;;;;;;;22.98;12.30;;;;;;;8.97;56.78;101194.47;4917936;28;124242;-69
2024/03/05 00:48:49;;;;;;;23.45;11.32;;;;;;;8.96;57.08;101195.38;4929369;28;114420;-69
2024/03/05 00:51:16;;;;;;;23.40;11.45;;;;;;;8.93;57.16;101195.50;4929321;28;114323;-69
2024/03/05 00:53:44;;;;;;;23.08;11.55;;;;;;;8.91;57.05;101200.81;4922337;28;124838;-69
2024/03/05 00:56:12;;;;;;;45.70;12.63;;;;;;;8.88;56.98;101197.41;4930801;28;123941;-70
2024/03/05 00:58:39;;;;;;;31.10;11.73;;;;;;;8.84;57.09;101194.00;4931169;28;114604;-69
2024/03/05 01:01:07;;;;;;;22.23;9.77;;;;;;;8.81;57.51;101199.38;4927118;28;113972;-69
2024/03/05 01:03:35;;;;;;;17.52;8.88;;;;;;;8.77;57.17;101203.88;4923889;28;124360;-69
2024/03/05 01:06:03;;;;;;;17.88;8.95;;;;;;;8.73;57.06;101191.69;4924037;28;123946;-69
2024/03/05 01:08:31;;;;;;;22.80;7.32;;;;;;;8.68;57.30;101192.75;4931425;28;113080;-69
2024/03/05 01:10:59;;;;;;;47.10;6.63;;;;;;;8.62;57.47;101188.53;4905863;28;113212;-69
2024/03/05 01:13:26;;;;;;;45.22;8.50;;;;;;;8.54;57.30;101199.31;4912940;28;123755;-69
2024/03/05 01:15:54;;;;;;;17.58;7.03;;;;;;;8.49;57.36;101195.97;4921561;28;123716;-69
2024/03/05 01:18:26;;;;;;;30.02;7.35;;;;;;;8.45;57.55;101201.38;4934256;28;113353;-69
2024/03/05 01:20:53;;;;;;;31.40;7.82;;;;;;;8.42;57.93;101201.47;4925674;28;114566;-69
2024/03/05 01:23:21;;;;;;;16.65;6.60;;;;;;;8.38;57.74;101201.56;4921176;28;124561;-70
2024/03/05 01:25:48;;;;;;;16.92;6.85;;;;;;;8.35;57.94;101206.91;4929945;28;124429;-69
2024/03/05 01:28:15;;;;;;;18.35;7.15;;;;;;;8.33;58.25;101198.19;4916225;28;115293;-70
2024/03/05 01:30:43;;;;;;;22.13;8.75;;;;;;;8.32;57.95;101200.84;4918749;28;114959;-70
2024/03/05 01:33:19;;;;;;;18.08;9.57;;;;;;;8.31;58.12;101194.72;4945689;22;123292;-70
2024/03/05 01:35:48;;;;;;;19.60;10.02;;;;;;;8.33;58.23;101197.31;4903800;28;122819;-70
2024/03/05 01:38:17;;;;;;;18.90;10.63;;;;;;;8.34;58.33;101194.66;4905574;28;114241;-71
2024/03/05 01:40:44;;;;;;;18.92;10.45;;;;;;;8.35;58.68;101185.81;4902599;28;114115;-70
2024/03/05 01:43:12;;;;;;;16.90;9.70;;;;;;;8.39;58.33;101187.44;4900761;28;124831;-71
2024/03/05 01:45:39;;;;;;;18.23;9.32;;;;;;;8.44;58.83;101183.81;4889475;28;124665;-70
2024/03/05 01:48:08;;;;;;;18.55;10.02;;;;;;;8.46;58.61;101182.03;4889631;28;114071;-71
2024/03/05 01:50:35;;;;;;;17.08;10.48;;;;;;;8.49;58.47;101176.63;4891274;28;114283;-70
2024/03/05 01:53:06;;;;;;;16.95;10.18;;;;;;;8.53;58.71;101178.25;4886785;28;124023;-71
2024/03/05 01:55:37;;;;;;;16.30;9.70;;;;;;;8.57;58.61;101185.19;4875007;28;123667;-70
2024/03/05 01:58:06;;;;;;;19.52;10.70;;;;;;;8.61;58.86;101181.53;4891850;28;114345;-70
2024/03/05 02:00:36;;;;;;;25.35;11.57;;;;;;;8.65;58.69;101183.16;4876977;28;112978;-71
2024/03/05 02:03:05;;;;;;;23.90;12.20;;;;;;;8.68;58.87;101177.78;4889765;28;124615;-71
2024/03/05 02:05:33;;;;;;;25.58;12.55;;;;;;;8.70;58.67;101178.59;4889685;28;123795;-71
2024/03/05 02:08:02;;;;;;;26.67;13.27;;;;;;;8.72;58.98;101174.13;4862312;28;114078;-71
2024/03/05 02:10:30;;;;;;;24.63;12.35;;;;;;;8.73;58.96;101170.56;4890394;28;114063;-70
2024/03/05 02:12:57;;;;;;;23.02;12.95;;;;;;;8.74;58.93;101177.59;4883000;28;124264;-71
2024/03/05 02:15:25;;;;;;;22.88;11.63;;;;;;;8.77;59.09;101177.47;4879585;28;122106;-71
2024/03/05 02:17:53;;;;;;;19.48;10.23;;;;;;;8.80;59.17;101180.94;4893577;28;115222;-71
2024/03/05 02:20:21;;;;;;;19.60;10.40;;;;;;;8.80;59.45;101173.00;4891749;28;115209;-70
2024/03/05 02:22:48;;;;;;;21.25;11.95;;;;;;;8.81;59.08;101172.09;4890999;28;124168;-71
2024/03/05 02:25:15;;;;;;;25.95;12.88;;;;;;;8.85;59.23;101173.72;4891967;28;122719;-70
2024/03/05 02:27:45;;;;;;;26.58;13.18;;;;;;;8.88;59.21;101173.63;4891560;28;113479;-70
2024/03/05 02:30:15;;;;;;;29.67;14.98;;;;;;;8.93;59.51;101171.72;4891339;28;114664;-70
2024/03/05 02:32:43;;;;;;;31.60;15.55;;;;;;;8.97;59.42;101178.63;4889271;28;123442;-70
2024/03/05 02:35:13;;;;;;;29.40;14.82;;;;;;;9.00;59.52;101167.94;4880858;28;124419;-70
2024/03/05 02:37:41;;;;;;;33.35;15.13;;;;;;;9.04;59.39;101174.88;4883325;28;114262;-70
2024/03/05 02:40:13;;;;;;;27.45;14.15;;;;;;;9.07;59.45;101172.09;4880460;28;114317;-70
2024/03/05 02:42:41;;;;;;;30.67;15.90;;;;;;;9.11;59.95;101171.06;4885586;28;124576;-70
2024/03/05 02:45:11;;;;;;;28.88;14.85;;;;;;;9.15;59.94;101171.84;4889943;28;123735;-70
2024/03/05 02:47:41;;;;;;;32.30;15.10;;;;;;;9.18;59.99;101173.53;4878933;28;113741;-69
2024/03/05 02:50:10;;;;;;;32.17;15.68;;;;;;;9.21;59.69;101176.06;4890039;28;112573;-69
2024/03/05 02:52:38;;;;;;;34.47;16.45;;;;;;;9.23;59.99;101168.94;4883181;28;123655;-70
2024/03/05 02:55:09;;;;;;;31.65;16.52;;;;;;;9.26;59.89;101158.28;4893715;28;123762;-70
2024/03/05 02:57:41;;;;;;;32.50;16.35;;;;;;;9.29;60.19;101168.75;4864782;28;114540;-70
2024/03/05 03:00:18;;;;;;;36.17;16.98;;;;;;;9.31;59.88;101159.84;4877333;28;114406;-69
2024/03/05 03:02:50;;;;;;;31.38;16.73;;;;;;;9.35;59.98;101153.53;4853626;28;123668;-69
2024/03/05 03:05:21;;;;;;;33.10;17.60;;;;;;;9.41;60.16;101162.16;4874939;28;122956;-69
2024/03/05 03:07:49;;;;;;;38.97;19.17;;;;;;;9.45;59.99;101164.63;4877840;28;115119;-69
2024/03/05 03:10:18;;;;;;;38.85;18.52;;;;;;;9.49;60.17;101161.00;4886394;28;115403;-70
2024/03/05 03:12:48;;;;;;;37.20;18.25;;;;;;;9.52;60.05;101163.50;4862629;28;123693;-70
2024/03/05 03:15:24;;;;;;;38.90;18.13;;;;;;;9.57;60.16;101162.47;4889650;28;124207;-69
2024/03/05 03:17:51;;;;;;;37.75;19.95;;;;;;;9.59;59.92;101165.91;4881651;28;114465;-69
2024/03/05 03:20:18;;;;;;;40.72;20.55;;;;;;;9.64;60.46;101163.97;4891515;28;113100;-70
2024/03/05 03:22:46;;;;;;;40.03;20.45;;;;;;;9.66;60.14;101162.16;4889758;28;124638;-70
2024/03/05 03:25:14;;;;;;;43.72;21.30;;;;;;;9.69;60.24;101164.69;4886318;28;123976;-70
2024/03/05 03:27:41;;;;;;;44.13;21.20;;;;;;;9.72;60.30;101156.66;4899461;28;114472;-71
2024/03/05 03:30:17;;;;;;;43.38;21.33;;;;;;;9.75;60.52;101161.81;4899484;28;113949;-70
2024/03/05 03:32:49;;;;;;;40.83;21.10;;;;;;;9.77;60.27;101153.81;4890500;28;124199;-70
2024/03/05 03:35:18;;;;;;;44.72;21.08;;;;;;;9.82;60.41;101151.88;4896787;28;123981;-70
2024/03/05 03:37:46;;;;;;;49.78;21.08;;;;;;;9.84;60.31;101161.47;4907363;28;114900;-70
2024/03/05 03:40:20;;;;;;;46.17;22.10;;;;;;;9.88;60.63;101163.09;4894791;28;113887;-70
2024/03/05 03:42:52;;;;;;;48.37;22.60;;;;;;;9.93;60.40;101150.56;4892442;28;124205;-70
2024/03/05 03:45:20;;;;;;;46.60;22.40;;;;;;;9.97;60.32;101155.75;4883911;28;123643;-70
2024/03/05 03:47:47;;;;;;;47.00;22.25;;;;;;;9.99;60.35;101159.19;4902374;28;114727;-70
2024/03/05 03:50:15;;;;;;;52.15;22.90;;;;;;;10.01;60.26;101157.34;4866023;28;114697;-70
2024/03/05 03:52:43;;;;;;;42.80;22.08;;;;;;;10.05;60.38;101153.66;4871324;28;123090;-70
2024/03/05 03:55:11;;;;;;;45.28;22.60;;;;;;;10.09;60.49;101156.13;4909859;28;123903;-70
2024/03/05 03:57:39;;;;;;;48.33;23.60;;;;;;;10.15;60.42;101160.31;4882085;28;115445;-70
2024/03/05 04:00:07;;;;;;;49.17;21.92;;;;;;;10.19;60.60;101161.94;4885723;28;115019;-71
2024/03/05 04:02:39;;;;;;;47.65;22.55;;;;;;;10.21;60.30;101168.03;4870197;28;124817;-71
2024/03/05 04:05:09;;;;;;;50.05;23.17;;;;;;;10.25;60.35;101167.00;4889934;28;124055;-70
2024/03/05 04:07:37;;;;;;;51.22;24.02;;;;;;;10.29;60.13;101158.00;4892038;28;114537;-70
2024/03/05 04:10:07;;;;;;;54.25;24.83;;;;;;;10.32;60.44;101157.06;4868676;28;113668;-70
2024/03/05 04:12:34;;;;;;;55.28;25.00;;;;;;;10.37;60.23;101162.19;4850626;28;123305;-71
2024/03/05 04:15:03;;;;;;;51.22;24.80;;;;;;;10.40;60.14;101170.88;4873218;28;122739;-70
2024/03/05 04:17:30;;;;;;;56.75;24.60;;;;;;;10.44;60.32;101176.91;4887150;28;114405;-70
2024/03/05 04:19:57;;;;;;;53.92;24.30;;;;;;;10.47;60.31;101168.84;4879200;28;114423;-70
2024/03/05 04:22:25;;;;;;;53.70;24.38;;;;;;;10.48;60.17;101173.22;4886967;28;124335;-70
2024/03/05 04:24:52;;;;;;;51.90;23.88;;;;;;;10.50;59.99;101171.38;4872891;28;122818;-70
2024/03/05 04:27:20;;;;;;;50.85;24.45;;;;;;;10.50;60.21;101177.53;4893256;28;114934;-70
2024/03/05 04:29:52;;;;;;;51.20;24.23;;;;;;;10.52;60.18;101180.97;4891565;28;114098;-70
2024/03/05 04:32:20;;;;;;;54.35;24.17;;;;;;;10.54;60.21;101177.41;4889589;28;124386;-70
2024/03/05 04:35:00;;;;;;;53.67;24.08;;;;;;;10.54;60.05;101178.28;4890536;28;123845;-70
2024/03/05 04:37:30;;;;;;;54.40;24.63;;;;;;;10.56;60.06;101186.16;4877337;28;113732;-70
2024/03/05 04:39:58;;;;;;;57.63;24.65;;;;;;;10.56;59.91;101181.72;4893778;28;113413;-70
2024/03/05 04:42:26;;;;;;;51.78;23.40;;;;;;;10.55;59.79;101180.00;4877858;28;123990;-70
2024/03/05 04:44:53;;;;;;;56.67;24.55;;;;;;;10.56;59.98;101179.06;4885919;28;125959;-70
2024/03/05 04:47:21;;;;;;;53.25;24.48;;;;;;;10.57;60.12;101180.81;4893394;28;114019;-70
2024/03/05 04:49:48;;;;;;;49.10;24.15;;;;;;;10.57;60.00;101185.22;4876959;28;114074;-70
2024/03/05 04:52:18;;;;;;;52.50;25.35;;;;;;;10.57;59.82;101178.16;4891016;28;124877;-70
2024/03/05 04:54:45;;;;;;;52.85;24.15;;;;;;;10.57;59.96;101183.44;4873841;28;122887;-70
2024/03/05 04:57:13;;;;;;;48.25;23.23;;;;;;;10.57;59.79;101183.44;4882417;28;114408;-69
2024/03/05 04:59:41;;;;;;;60.08;26.08;;;;;;;10.57;59.87;101183.44;4891310;28;113540;-70
2024/03/05 05:02:08;;;;;;;59.10;25.70;;;;;;;10.58;60.10;101185.16;4882733;28;124859;-70
2024/03/05 05:04:37;;;;;;;55.05;25.23;;;;;;;10.58;59.85;101179.88;4892402;28;123918;-69
2024/03/05 05:07:07;;;;;;;57.15;26.08;;;;;;;10.59;59.93;101181.59;4887158;28;114183;-70
2024/03/05 05:09:36;;;;;;;54.58;24.85;;;;;;;10.58;59.97;101185.16;4888759;28;113220;-69
2024/03/05 05:12:03;;;;;;;51.60;24.02;;;;;;;10.57;60.04;101183.44;4885590;28;124797;-70
2024/03/05 05:14:32;;;;;;;45.75;22.63;;;;;;;10.56;59.99;101186.16;4886267;28;123948;-70
2024/03/05 05:17:03;;;;;;;48.72;22.73;;;;;;;10.52;60.03;101186.25;4880893;28;114288;-70
2024/03/05 05:19:31;;;;;;;51.40;23.20;;;;;;;10.52;60.07;101185.41;4887234;28;113817;-70
2024/03/05 05:21:58;;;;;;;50.42;23.23;;;;;;;10.50;60.13;101181.97;4883576;28;123090;-70
2024/03/05 05:24:25;;;;;;;48.72;24.00;;;;;;;10.48;60.22;101184.66;4893405;28;124527;-70
2024/03/05 05:26:52;;;;;;;49.33;23.90;;;;;;;10.47;60.18;101187.38;4876337;28;113495;-70
2024/03/05 05:29:20;;;;;;;58.78;24.45;;;;;;;10.45;60.04;101183.91;4886179;28;114084;-70
2024/03/05 05:32:07;;;;;;;;;;;;;;;10.43;59.75;101185.78;4884233;28;124109;-70
2024/03/05 05:34:35;;;;;;;56.67;24.00;;;;;;;10.44;59.99;101187.50;4876785;28;122864;-70
2024/03/05 05:37:04;;;;;;;53.88;24.80;;;;;;;10.43;60.06;101191.91;4876619;28;115703;-70
2024/03/05 05:39:32;;;;;;;54.33;23.85;;;;;;;10.43;60.21;101201.66;4888419;28;114744;-70
2024/03/05 05:42:00;;;;;;;58.67;25.02;;;;;;;10.46;60.19;101201.56;4862815;28;123585;-70
2024/03/05 05:44:27;;;;;;;67.13;26.83;;;;;;;10.48;60.10;101189.09;4888615;28;123984;-70
2024/03/05 05:46:56;;;;;;;64.57;26.52;;;;;;;10.48;60.16;101189.09;4895092;28;97175;-70
2024/03/05 05:49:23;;;;;;;61.30;25.38;;;;;;;10.48;60.34;101194.41;4892366;28;113022;-70
2024/03/05 05:51:51;;;;;;;62.45;26.42;;;;;;;10.50;60.39;101193.41;4883666;28;124895;-70
2024/03/05 05:54:18;;;;;;;57.42;26.17;;;;;;;10.54;60.48;101198.59;4892229;28;124146;-70
2024/03/05 05:56:49;;;;;;;52.65;23.83;;;;;;;10.56;60.44;101202.91;4891680;28;114319;-70
2024/03/05 05:59:17;;;;;;;60.80;24.85;;;;;;;10.60;60.31;101201.84;4893588;28;113182;-70
2024/03/05 06:01:46;;;;;;;41.83;14.70;;;;;;;10.62;60.60;101202.66;4890625;28;124207;-70
2024/03/05 06:04:15;;;;;;;42.50;14.65;;;;;;;10.66;60.18;101198.97;4879508;28;124055;-70
2024/03/05 06:06:43;;;;;;;40.38;14.55;;;;;;;10.67;60.12;101200.69;4882310;28;114755;-70
2024/03/05 06:09:10;;;;;;;41.95;14.60;;;;;;;10.67;59.90;101200.69;4881748;28;114087;-70
2024/03/05 06:11:38;;;;;;;43.47;15.10;;;;;;;10.64;59.98;101206.13;4874053;28;123874;-70
2024/03/05 06:14:09;;;;;;;44.35;15.40;;;;;;;10.63;59.93;101203.53;4882568;28;124485;-70
2024/03/05 06:16:48;;;;;;;42.95;14.73;;;;;;;10.60;59.72;101215.09;4885698;28;114387;-70
2024/03/05 06:19:16;;;;;;;45.03;13.93;;;;;;;10.60;59.81;101214.25;4883534;28;114104;-70
2024/03/05 06:21:45;;;;;;;42.83;15.05;;;;;;;10.61;59.81;101211.53;4891065;28;124948;-70
2024/03/05 06:24:13;;;;;;;43.47;14.95;;;;;;;10.63;59.99;101215.00;4891658;28;124206;-70
2024/03/05 06:26:40;;;;;;;38.30;13.88;;;;;;;10.65;59.75;101215.78;4882489;28;114379;-70
2024/03/05 06:29:09;;;;;;;42.63;14.43;;;;;;;10.68;59.85;101212.13;4888904;28;114720;-71
2024/03/05 06:31:36;;;;;;;46.65;15.68;;;;;;;10.70;59.81;101211.19;4892516;28;124748;-70
2024/03/05 06:34:05;;;;;;;40.97;15.98;;;;;;;10.73;59.73;101225.22;4888628;28;123909;-70
2024/03/05 06:36:33;;;;;;;44.22;15.20;;;;;;;10.76;59.71;101225.13;4863335;28;114350;-70
2024/03/05 06:39:09;;;;;;;49.75;14.88;;;;;;;10.79;59.85;101224.97;4877648;28;114019;-70
2024/03/05 06:41:37;;;;;;;49.05;15.40;;;;;;;10.80;59.63;101226.72;4871586;28;122770;-70
2024/03/05 06:44:10;;;;;;;46.35;15.05;;;;;;;10.82;59.49;101224.84;4884425;28;124411;-70
2024/03/05 06:46:41;;;;;;;48.22;15.35;;;;;;;10.84;59.46;101223.00;4888342;28;114322;-70
2024/03/05 06:49:14;;;;;;;49.33;15.60;;;;;;;10.86;59.50;101221.16;4849478;28;113391;-70
2024/03/05 06:51:53;;;;;;;44.38;15.02;;;;;;;10.87;59.63;101222.91;4872131;28;124759;-70
2024/03/05 06:57:08;;;;;;;48.17;15.82;;;;;;;10.88;59.39;101224.59;4896388;28;114313;-69
2024/03/05 06:59:35;;;;;;;44.03;15.27;;;;;;;10.88;59.52;101224.59;4894430;28;114383;-70
2024/03/05 07:02:03;;;;;;;41.65;14.95;;;;;;;10.89;59.38;101231.66;4893611;28;123909;-70
2024/03/05 07:04:30;;;;;;;44.50;15.45;;;;;;;10.91;59.37;101219.19;4886007;28;124072;-70
2024/03/05 07:06:59;;;;;;;45.33;15.63;;;;;;;10.91;59.41;101224.50;4890376;28;114643;-70
2024/03/05 07:09:30;;;;;;;49.53;15.80;;;;;;;10.92;59.33;101234.16;4875459;28;114354;-70
2024/03/05 07:11:58;;;;;;;46.22;15.70;;;;;;;10.94;59.34;101229.66;4890353;28;124068;-70
2024/03/05 07:14:26;;;;;;;47.50;16.35;;;;;;;10.95;59.26;101236.69;4887919;28;123043;-70
2024/03/05 07:16:53;;;;;;;47.15;15.90;;;;;;;10.97;59.34;101229.53;4888862;28;114126;-71
2024/03/05 07:19:21;;;;;;;51.10;15.88;;;;;;;11.00;59.22;101232.06;4871991;28;113781;-71
2024/03/05 07:21:48;;;;;;;50.53;16.38;;;;;;;11.03;59.50;101239.88;4891950;28;124209;-71
2024/03/05 07:24:16;;;;;;;54.40;15.48;;;;;;;11.06;59.43;101239.78;4881498;28;122718;-71
2024/03/05 07:26:44;;;;;;;50.22;16.77;;;;;;;11.08;59.28;101237.06;4888278;28;114123;-71
2024/03/05 07:29:30;;;;;;;48.60;16.05;;;;;;;11.13;59.18;101239.50;4883105;28;114244;-71
2024/03/05 07:31:58;;;;;;;53.22;16.90;;;;;;;11.15;59.33;101242.97;4890258;28;124171;-71
2024/03/05 07:34:25;;;;;;;56.03;16.77;;;;;;;11.18;59.27;101248.16;4892915;28;123749;-71
2024/03/05 07:36:53;;;;;;;48.33;16.55;;;;;;;11.19;59.18;101250.75;4892615;28;114602;-71
2024/03/05 07:39:24;;;;;;;45.10;15.80;;;;;;;11.21;59.28;101248.03;4892456;28;113794;-71
2024/03/05 07:41:51;;;;;;;51.10;16.70;;;;;;;11.23;59.21;101251.47;4873433;28;124600;-71
2024/03/05 07:44:21;;;;;;;53.40;17.52;;;;;;;11.23;59.23;101247.03;4872684;28;123090;-72
2024/03/05 07:46:48;;;;;;;49.33;16.52;;;;;;;11.27;59.22;101247.78;4890203;28;114288;-71
2024/03/05 07:49:16;;;;;;;51.75;16.63;;;;;;;11.28;59.28;101245.06;4883254;28;113365;-71
2024/03/05 07:51:43;;;;;;;49.38;17.02;;;;;;;11.30;59.29;101247.63;4871961;28;123997;-71
2024/03/05 07:54:12;;;;;;;54.28;19.75;;;;;;;11.31;59.23;101244.06;4874290;28;122950;-71
2024/03/05 07:56:40;;;;;;;53.67;19.35;;;;;;;11.30;59.22;101247.63;4886629;28;114345;-71
2024/03/05 07:59:10;;;;;;;50.70;17.88;;;;;;;11.32;59.16;101251.09;4892343;28;113783;-71
2024/03/05 08:01:37;;;;;;;49.03;18.52;;;;;;;11.35;59.39;101235.03;4876860;28;122946;-70
2024/03/05 08:04:35;;;;;;;48.65;17.80;;;;;;;11.38;59.32;101247.34;4889737;28;125212;-71
2024/03/05 08:07:03;;;;;;;49.88;16.38;;;;;;;11.40;59.37;101248.97;4891815;28;115564;-71
2024/03/05 08:09:30;;;;;;;53.08;17.92;;;;;;;11.41;59.22;101250.69;4893841;28;115808;-71
2024/03/05 08:11:58;;;;;;;50.65;18.10;;;;;;;11.41;58.78;101260.44;4894318;28;123856;-71
2024/03/05 08:14:25;;;;;;;51.05;16.90;;;;;;;11.41;59.37;101256.00;4902672;28;123843;-71
2024/03/05 08:16:52;;;;;;;55.90;18.83;;;;;;;11.43;59.22;101259.47;4892249;28;114252;-71
2024/03/05 08:19:22;;;;;;;49.97;17.58;;;;;;;11.43;59.29;101264.78;4877159;28;113354;-71
2024/03/05 08:21:50;;;;;;;45.47;17.70;;;;;;;11.43;59.36;101267.44;4873538;28;123633;-71
2024/03/05 08:24:17;;;;;;;47.13;17.58;;;;;;;11.45;59.33;101251.44;4889949;28;124028;-70
2024/03/05 08:26:44;;;;;;;47.67;18.58;;;;;;;11.46;59.35;101261.97;4884437;28;114201;-71
2024/03/05 08:29:12;;;;;;;50.78;17.95;;;;;;;11.47;59.21;101271.69;4893129;28;114396;-71
2024/03/05 08:31:39;;;;;;;55.38;18.45;;;;;;;11.49;59.20;101275.13;4890831;28;124156;-72
2024/03/05 08:34:07;;;;;;;46.95;17.45;;;;;;;11.53;59.16;101273.22;4879424;28;124001;-71
2024/03/05 08:36:36;;;;;;;47.40;18.00;;;;;;;11.56;59.22;101269.56;4891685;28;114282;-71
2024/03/05 08:39:10;;;;;;;51.88;18.33;;;;;;;11.59;59.28;101275.59;4893742;28;114283;-71
2024/03/05 08:41:40;;;;;;;49.90;17.45;;;;;;;11.65;59.21;101279.78;4861129;28;123692;-71
2024/03/05 08:44:07;;;;;;;45.22;18.15;;;;;;;11.68;59.29;101277.00;4882601;28;124048;-71
2024/03/05 08:46:34;;;;;;;51.05;18.33;;;;;;;11.71;59.22;101274.19;4892301;28;114918;-72
2024/03/05 08:49:02;;;;;;;43.88;17.60;;;;;;;11.75;59.24;101270.47;4892626;28;114717;-71
2024/03/05 08:51:30;;;;;;;46.50;17.42;;;;;;;11.78;59.15;101273.00;4891354;28;123017;-71
2024/03/05 08:54:00;;;;;;;46.85;18.20;;;;;;;11.80;59.37;101279.13;4881632;28;123213;-71
2024/03/05 08:56:27;;;;;;;44.10;17.63;;;;;;;11.83;59.24;101281.66;4883756;28;115371;-71
2024/03/05 08:58:54;;;;;;;47.63;18.02;;;;;;;11.83;59.27;101279.00;4884022;28;115727;-71
2024/03/05 09:01:21;;;;;;;43.08;16.92;;;;;;;11.85;59.15;101282.44;4876740;28;122937;-71
2024/03/05 09:03:49;;;;;;;44.60;16.80;;;;;;;11.87;59.16;101291.19;4892337;28;123770;-71
2024/03/05 09:06:17;;;;;;;46.40;17.83;;;;;;;11.88;59.04;101292.94;4867009;28;113357;-71
2024/03/05 09:08:44;;;;;;;46.55;17.83;;;;;;;11.91;59.10;101291.09;4887084;28;114112;-71
2024/03/05 09:11:12;;;;;;;45.88;17.65;;;;;;;11.90;58.99;101294.66;4888546;28;124364;-71
2024/03/05 09:13:43;;;;;;;42.83;17.45;;;;;;;11.90;59.09;101289.38;4873584;28;122945;-72
2024/03/05 09:16:12;;;;;;;47.92;17.38;;;;;;;11.91;59.11;101297.28;4885699;28;114223;-72
2024/03/05 09:18:40;;;;;;;44.92;17.45;;;;;;;11.93;59.01;101294.56;4888941;28;112821;-72
2024/03/05 09:21:08;;;;;;;40.60;16.75;;;;;;;11.95;59.14;101303.31;4886516;28;124009;-73
2024/03/05 09:23:41;;;;;;;46.03;17.80;;;;;;;11.98;59.20;101303.16;4892271;28;124660;-72
2024/03/05 09:26:08;;;;;;;50.05;18.17;;;;;;;12.00;59.11;101299.53;4869829;28;114296;-72
2024/03/05 09:28:37;;;;;;;41.13;17.63;;;;;;;12.03;58.93;101301.16;4880376;28;114854;-72
2024/03/05 09:31:04;;;;;;;41.78;16.77;;;;;;;12.06;59.12;101301.06;4887946;28;123938;-72
2024/03/05 09:33:32;;;;;;;46.88;17.35;;;;;;;12.09;59.05;101298.25;4874668;28;122686;-72
2024/03/05 09:35:59;;;;;;;44.92;17.77;;;;;;;12.09;58.93;101295.59;4875451;28;114195;-72
2024/03/05 09:38:26;;;;;;;46.53;17.30;;;;;;;12.11;59.01;101309.69;4885355;28;114649;-72
2024/03/05 09:40:54;;;;;;;45.45;17.17;;;;;;;12.12;59.27;101306.09;4887342;28;124310;-72
2024/03/05 09:43:25;;;;;;;44.33;17.20;;;;;;;12.12;58.99;101306.09;4891218;28;123821;-72
2024/03/05 09:46:04;;;;;;;43.00;17.20;;;;;;;12.13;58.98;101299.84;4887082;28;115594;-72
2024/03/05 09:48:33;;;;;;;42.55;17.15;;;;;;;12.14;58.96;101298.91;4890256;28;115027;-72
2024/03/05 09:51:02;;;;;;;42.00;15.98;;;;;;;12.14;58.99;101304.22;4890266;28;124165;-72
2024/03/05 09:53:29;;;;;;;45.80;16.38;;;;;;;12.16;59.21;101301.50;4885874;28;124742;-72
2024/03/05 09:55:57;;;;;;;41.35;16.75;;;;;;;12.16;58.96;101302.34;4889007;28;114500;-74
2024/03/05 09:58:39;;;;;;;41.15;15.48;;;;;;;12.18;59.14;101304.94;4875550;28;114100;-73
2024/03/05 10:01:09;;;;;;;42.92;15.73;;;;;;;12.18;59.10;101305.81;4879821;28;124021;-73
2024/03/05 10:03:38;;;;;;;43.13;16.20;;;;;;;12.20;59.05;101311.91;4863406;28;124380;-72
2024/03/05 10:06:09;;;;;;;46.50;16.45;;;;;;;12.22;59.01;101315.38;4887969;28;114618;-73
2024/03/05 10:08:36;;;;;;;46.72;16.65;;;;;;;12.25;59.11;101315.22;4891651;28;113878;-73
2024/03/05 10:11:04;;;;;;;41.08;15.68;;;;;;;12.27;59.03;101325.78;4887723;28;124026;-72
2024/03/05 10:13:37;;;;;;;39.88;15.50;;;;;;;12.30;59.00;101327.44;4888128;28;124037;-73
2024/03/05 10:16:24;;;;;;;37.40;15.27;;;;;;;12.32;59.02;101333.53;4874474;28;113410;-73
2024/03/05 10:18:51;;;;;;;36.45;14.48;;;;;;;12.34;59.12;101323.69;4868976;28;114048;-73
2024/03/05 10:21:22;;;;;;;34.28;14.38;;;;;;;12.37;59.18;101328.88;4889253;28;123899;-73
2024/03/05 10:23:59;;;;;;;34.50;14.57;;;;;;;12.40;59.07;101331.41;4871316;28;122856;-72
2024/03/05 10:26:30;;;;;;;34.75;14.23;;;;;;;12.43;59.23;101331.25;4883648;28;114396;-73
2024/03/05 10:28:58;;;;;;;37.88;14.73;;;;;;;12.46;59.04;101323.16;4886953;28;114055;-72
2024/03/05 10:31:27;;;;;;;31.75;14.73;;;;;;;12.51;59.22;101329.16;4882457;28;123124;-73
2024/03/05 10:33:56;;;;;;;58.53;26.83;;;;;;;12.55;59.29;101325.41;4893025;28;124386;-73
2024/03/05 10:36:31;;;;;;;46.60;25.33;;;;;;;12.60;59.32;101322.53;4887709;28;115587;-72
2024/03/05 10:38:59;;;;;;;42.40;22.10;;;;;;;12.63;59.45;101328.56;4893696;28;114999;-72
2024/03/05 10:41:39;;;;;;;42.95;22.38;;;;;;;12.68;59.41;101330.16;4894237;28;123989;-71
2024/03/05 10:44:18;;;;;;;40.67;20.85;;;;;;;12.72;59.45;101329.94;4891052;28;125064;-72
2024/03/05 10:46:46;;;;;;;45.00;22.17;;;;;;;12.78;59.47;101336.78;4886705;28;114448;-71
2024/03/05 10:49:17;;;;;;;45.53;23.30;;;;;;;12.81;59.57;101341.97;4888303;28;114502;-72
2024/03/05 10:51:45;;;;;;;48.80;25.27;;;;;;;12.88;59.67;101338.06;4872833;28;123885;-72
2024/03/05 10:54:13;;;;;;;41.40;21.80;;;;;;;12.93;59.63;101341.38;4877013;28;122756;-72
2024/03/05 10:56:40;;;;;;;43.95;22.23;;;;;;;12.97;59.52;101327.00;4895690;28;114408;-71
2024/03/05 10:59:28;;;;;;;39.58;21.10;;;;;;;13.00;59.65;101337.50;4889529;28;114001;-72
2024/03/05 11:01:58;;;;;;;42.33;22.77;;;;;;;13.06;59.85;101341.66;4885841;28;123880;-72
2024/03/05 11:04:29;;;;;;;34.80;20.98;;;;;;;13.11;59.55;101339.66;4889211;28;123925;-72
2024/03/05 11:06:58;;;;;;;33.80;17.85;;;;;;;13.16;59.64;101336.75;4889513;28;114268;-72
2024/03/05 11:09:26;;;;;;;33.03;17.63;;;;;;;13.21;59.45;101334.75;4891830;28;113775;-69
2024/03/05 11:12:02;;;;;;;30.08;16.48;;;;;;;13.22;59.28;101339.13;4875459;28;124826;-69
2024/03/05 11:14:33;;;;;;;26.92;16.23;;;;;;;13.23;59.18;101338.19;4873967;28;122227;-69
2024/03/05 11:17:09;;;;;;;27.88;16.35;;;;;;;13.25;59.04;101336.31;4892553;28;114284;-69